sensor_id;sensor_type;location;lat;lon;timestamp;temperature;humidity
12811;DHT22;6470;47.654;7.896;2024-03-08T00:00:28;1.70;99.90
12811;DHT22;6470;47.654;7.896;2024-03-08T00:02:54;4.90;99.90
12811;DHT22;6470;47.654;7.896;2024-03-08T00:10:14;4.80;99.90
12811;DHT22;6470;47.654;7.896;2024-03-08T00:12:41;5.10;99.90
12811;DHT22;6470;47.654;7.896;2024-03-08T00:15:19;4.90;99.90
12811;DHT22;6470;47.654;7.896;2024-03-08T00:17:45;4.60;99.90
12811;DHT22;6470;47.654;7.896;2024-03-08T00:20:11;3.90;99.90
12811;DHT22;6470;47.654;7.896;2024-03-08T00:22:38;4.40;99.90
12811;DHT22;6470;47.654;7.896;2024-03-08T00:25:05;4.70;99.90
12811;DHT22;6470;47.654;7.896;2024-03-08T00:27:34;4.40;99.90
12811;DHT22;6470;47.654;7.896;2024-03-08T00:30:00;4.60;99.90
12811;DHT22;6470;47.654;7.896;2024-03-08T00:32:26;4.20;99.90
12811;DHT22;6470;47.654;7.896;2024-03-08T00:34:53;4.30;99.90
12811;DHT22;6470;47.654;7.896;2024-03-08T00:37:20;4.50;99.90
12811;DHT22;6470;47.654;7.896;2024-03-08T00:39:48;4.50;99.90
12811;DHT22;6470;47.654;7.896;2024-03-08T00:42:15;4.60;99.90
12811;DHT22;6470;47.654;7.896;2024-03-08T00:44:40;4.70;99.90
12811;DHT22;6470;47.654;7.896;2024-03-08T00:47:06;4.00;99.90
12811;DHT22;6470;47.654;7.896;2024-03-08T00:51:58;4.70;99.90
12811;DHT22;6470;47.654;7.896;2024-03-08T00:54:23;4.20;99.90
12811;DHT22;6470;47.654;7.896;2024-03-08T00:56:49;5.20;99.90
12811;DHT22;6470;47.654;7.896;2024-03-08T00:59:15;5.00;99.90
12811;DHT22;6470;47.654;7.896;2024-03-08T01:01:41;5.30;99.90
12811;DHT22;6470;47.654;7.896;2024-03-08T01:04:07;5.20;99.90
12811;DHT22;6470;47.654;7.896;2024-03-08T01:08:59;5.00;99.90
12811;DHT22;6470;47.654;7.896;2024-03-08T01:11:25;1.30;99.90
12811;DHT22;6470;47.654;7.896;2024-03-08T01:16:18;1.50;99.90
12811;DHT22;6470;47.654;7.896;2024-03-08T01:21:12;4.80;99.90
12811;DHT22;6470;47.654;7.896;2024-03-08T01:23:38;1.90;99.90
12811;DHT22;6470;47.654;7.896;2024-03-08T01:28:30;5.10;99.90
12811;DHT22;6470;47.654;7.896;2024-03-08T01:30:56;5.30;99.90
12811;DHT22;6470;47.654;7.896;2024-03-08T01:33:23;1.50;99.90
12811;DHT22;6470;47.654;7.896;2024-03-08T01:35:49;4.60;99.90
12811;DHT22;6470;47.654;7.896;2024-03-08T01:43:20;5.00;99.90
12811;DHT22;6470;47.654;7.896;2024-03-08T01:45:47;4.80;99.90
12811;DHT22;6470;47.654;7.896;2024-03-08T01:48:17;4.40;99.90
12811;DHT22;6470;47.654;7.896;2024-03-08T01:50:43;4.70;99.90
12811;DHT22;6470;47.654;7.896;2024-03-08T01:55:38;4.80;99.90
12811;DHT22;6470;47.654;7.896;2024-03-08T01:58:05;4.90;99.90
12811;DHT22;6470;47.654;7.896;2024-03-08T02:00:34;4.60;99.90
12811;DHT22;6470;47.654;7.896;2024-03-08T02:03:01;4.50;99.90
12811;DHT22;6470;47.654;7.896;2024-03-08T02:05:27;4.80;99.90
12811;DHT22;6470;47.654;7.896;2024-03-08T02:10:19;5.00;99.90
12811;DHT22;6470;47.654;7.896;2024-03-08T02:12:46;3.80;99.90
12811;DHT22;6470;47.654;7.896;2024-03-08T02:15:13;4.60;99.90
12811;DHT22;6470;47.654;7.896;2024-03-08T02:20:05;4.40;99.90
12811;DHT22;6470;47.654;7.896;2024-03-08T02:22:31;3.90;99.90
12811;DHT22;6470;47.654;7.896;2024-03-08T02:25:00;4.60;99.90
12811;DHT22;6470;47.654;7.896;2024-03-08T02:29:56;4.40;99.90
12811;DHT22;6470;47.654;7.896;2024-03-08T02:32:24;4.30;99.90
12811;DHT22;6470;47.654;7.896;2024-03-08T02:34:50;1.20;99.90
12811;DHT22;6470;47.654;7.896;2024-03-08T02:37:17;3.80;99.90
12811;DHT22;6470;47.654;7.896;2024-03-08T02:42:09;4.10;99.90
12811;DHT22;6470;47.654;7.896;2024-03-08T02:44:34;4.00;99.90
12811;DHT22;6470;47.654;7.896;2024-03-08T02:49:27;3.40;99.90
12811;DHT22;6470;47.654;7.896;2024-03-08T02:51:53;3.70;99.90
12811;DHT22;6470;47.654;7.896;2024-03-08T02:56:46;2.90;99.90
12811;DHT22;6470;47.654;7.896;2024-03-08T02:59:12;2.80;99.90
12811;DHT22;6470;47.654;7.896;2024-03-08T03:01:38;3.40;99.90
12811;DHT22;6470;47.654;7.896;2024-03-08T03:06:30;2.80;99.90
12811;DHT22;6470;47.654;7.896;2024-03-08T03:08:57;3.00;99.90
12811;DHT22;6470;47.654;7.896;2024-03-08T03:11:23;3.00;99.90
12811;DHT22;6470;47.654;7.896;2024-03-08T03:13:49;2.90;99.90
12811;DHT22;6470;47.654;7.896;2024-03-08T03:16:20;2.40;99.90
12811;DHT22;6470;47.654;7.896;2024-03-08T03:21:13;-0.70;99.90
12811;DHT22;6470;47.654;7.896;2024-03-08T03:23:39;2.70;99.90
12811;DHT22;6470;47.654;7.896;2024-03-08T03:26:06;2.10;99.90
12811;DHT22;6470;47.654;7.896;2024-03-08T03:28:36;2.60;99.90
12811;DHT22;6470;47.654;7.896;2024-03-08T03:31:07;2.80;99.90
12811;DHT22;6470;47.654;7.896;2024-03-08T03:36:03;2.20;99.90
12811;DHT22;6470;47.654;7.896;2024-03-08T03:38:30;2.70;99.90
12811;DHT22;6470;47.654;7.896;2024-03-08T03:40:57;-1.10;99.90
12811;DHT22;6470;47.654;7.896;2024-03-08T03:43:29;2.20;99.90
12811;DHT22;6470;47.654;7.896;2024-03-08T03:45:55;2.00;99.90
12811;DHT22;6470;47.654;7.896;2024-03-08T03:48:21;2.50;99.90
12811;DHT22;6470;47.654;7.896;2024-03-08T03:50:46;2.10;99.90
12811;DHT22;6470;47.654;7.896;2024-03-08T03:53:12;2.90;99.90
12811;DHT22;6470;47.654;7.896;2024-03-08T03:55:38;2.10;99.90
12811;DHT22;6470;47.654;7.896;2024-03-08T03:58:04;3.00;99.90
12811;DHT22;6470;47.654;7.896;2024-03-08T04:05:26;0.90;99.90
12811;DHT22;6470;47.654;7.896;2024-03-08T04:07:52;2.90;99.90
12811;DHT22;6470;47.654;7.896;2024-03-08T04:12:44;2.40;99.90
12811;DHT22;6470;47.654;7.896;2024-03-08T04:15:11;2.60;99.90
12811;DHT22;6470;47.654;7.896;2024-03-08T04:17:36;2.50;99.90
12811;DHT22;6470;47.654;7.896;2024-03-08T04:20:05;2.60;99.90
12811;DHT22;6470;47.654;7.896;2024-03-08T04:22:38;2.90;99.90
12811;DHT22;6470;47.654;7.896;2024-03-08T04:25:05;0.60;99.90
12811;DHT22;6470;47.654;7.896;2024-03-08T04:27:35;2.80;99.90
12811;DHT22;6470;47.654;7.896;2024-03-08T04:30:01;2.20;99.90
12811;DHT22;6470;47.654;7.896;2024-03-08T04:32:27;2.10;99.90
12811;DHT22;6470;47.654;7.896;2024-03-08T04:34:55;2.90;99.90
12811;DHT22;6470;47.654;7.896;2024-03-08T04:37:21;2.80;99.90
12811;DHT22;6470;47.654;7.896;2024-03-08T04:39:47;2.90;99.90
12811;DHT22;6470;47.654;7.896;2024-03-08T04:42:13;2.30;99.90
12811;DHT22;6470;47.654;7.896;2024-03-08T04:44:40;2.80;99.90
12811;DHT22;6470;47.654;7.896;2024-03-08T04:47:06;2.70;99.90
12811;DHT22;6470;47.654;7.896;2024-03-08T04:49:34;2.20;99.90
12811;DHT22;6470;47.654;7.896;2024-03-08T04:52:03;2.70;99.90
12811;DHT22;6470;47.654;7.896;2024-03-08T04:54:30;2.20;99.90
12811;DHT22;6470;47.654;7.896;2024-03-08T04:56:55;2.60;99.90
12811;DHT22;6470;47.654;7.896;2024-03-08T05:01:47;1.80;99.90
12811;DHT22;6470;47.654;7.896;2024-03-08T05:04:13;2.10;99.90
12811;DHT22;6470;47.654;7.896;2024-03-08T05:06:40;-2.20;99.90
12811;DHT22;6470;47.654;7.896;2024-03-08T05:11:45;3.00;99.90
12811;DHT22;6470;47.654;7.896;2024-03-08T05:14:13;2.40;99.90
12811;DHT22;6470;47.654;7.896;2024-03-08T05:16:45;0.50;99.90
12811;DHT22;6470;47.654;7.896;2024-03-08T05:19:17;1.90;99.90
12811;DHT22;6470;47.654;7.896;2024-03-08T05:21:44;2.20;99.90
12811;DHT22;6470;47.654;7.896;2024-03-08T05:24:10;2.70;99.90
12811;DHT22;6470;47.654;7.896;2024-03-08T05:26:36;-2.10;99.90
12811;DHT22;6470;47.654;7.896;2024-03-08T05:29:03;-2.00;99.90
12811;DHT22;6470;47.654;7.896;2024-03-08T05:31:29;2.40;99.90
12811;DHT22;6470;47.654;7.896;2024-03-08T05:33:56;2.60;99.90
12811;DHT22;6470;47.654;7.896;2024-03-08T05:36:22;2.90;99.90
12811;DHT22;6470;47.654;7.896;2024-03-08T05:38:47;-2.00;99.90
12811;DHT22;6470;47.654;7.896;2024-03-08T05:41:16;-1.90;99.90
12811;DHT22;6470;47.654;7.896;2024-03-08T05:46:09;2.10;99.90
12811;DHT22;6470;47.654;7.896;2024-03-08T05:48:37;2.90;99.90
12811;DHT22;6470;47.654;7.896;2024-03-08T05:51:03;2.40;99.90
12811;DHT22;6470;47.654;7.896;2024-03-08T05:53:29;2.50;99.90
12811;DHT22;6470;47.654;7.896;2024-03-08T05:55:58;2.50;99.90
12811;DHT22;6470;47.654;7.896;2024-03-08T05:58:24;2.90;99.90
12811;DHT22;6470;47.654;7.896;2024-03-08T06:00:50;2.20;99.90
12811;DHT22;6470;47.654;7.896;2024-03-08T06:03:15;2.40;99.90
12811;DHT22;6470;47.654;7.896;2024-03-08T06:05:41;1.70;99.90
12811;DHT22;6470;47.654;7.896;2024-03-08T06:08:07;2.30;99.90
12811;DHT22;6470;47.654;7.896;2024-03-08T06:10:33;1.90;99.90
12811;DHT22;6470;47.654;7.896;2024-03-08T06:12:59;2.20;99.90
12811;DHT22;6470;47.654;7.896;2024-03-08T06:15:26;2.00;99.90
12811;DHT22;6470;47.654;7.896;2024-03-08T06:17:52;2.80;99.90
12811;DHT22;6470;47.654;7.896;2024-03-08T06:22:44;2.40;99.90
12811;DHT22;6470;47.654;7.896;2024-03-08T06:25:13;2.60;99.90
12811;DHT22;6470;47.654;7.896;2024-03-08T06:27:42;2.80;99.90
12811;DHT22;6470;47.654;7.896;2024-03-08T06:30:09;2.20;99.90
12811;DHT22;6470;47.654;7.896;2024-03-08T06:32:38;2.20;99.90
12811;DHT22;6470;47.654;7.896;2024-03-08T06:35:04;2.60;99.90
12811;DHT22;6470;47.654;7.896;2024-03-08T06:37:32;3.00;99.90
12811;DHT22;6470;47.654;7.896;2024-03-08T06:42:24;2.50;99.90
12811;DHT22;6470;47.654;7.896;2024-03-08T06:44:50;2.80;99.90
12811;DHT22;6470;47.654;7.896;2024-03-08T06:49:42;-1.30;99.90
12811;DHT22;6470;47.654;7.896;2024-03-08T06:52:09;2.60;99.90
12811;DHT22;6470;47.654;7.896;2024-03-08T06:54:36;2.60;99.90
12811;DHT22;6470;47.654;7.896;2024-03-08T06:57:05;2.70;99.90
12811;DHT22;6470;47.654;7.896;2024-03-08T06:59:31;1.90;99.90
12811;DHT22;6470;47.654;7.896;2024-03-08T07:04:25;2.40;99.90
12811;DHT22;6470;47.654;7.896;2024-03-08T07:06:55;2.50;99.90
12811;DHT22;6470;47.654;7.896;2024-03-08T07:09:21;-0.70;99.90
12811;DHT22;6470;47.654;7.896;2024-03-08T07:11:46;-0.70;99.90
12811;DHT22;6470;47.654;7.896;2024-03-08T07:16:40;3.20;99.90
12811;DHT22;6470;47.654;7.896;2024-03-08T07:21:33;2.70;99.90
12811;DHT22;6470;47.654;7.896;2024-03-08T07:23:58;2.80;99.90
12811;DHT22;6470;47.654;7.896;2024-03-08T07:26:27;3.60;99.90
12811;DHT22;6470;47.654;7.896;2024-03-08T07:28:53;3.90;99.90
12811;DHT22;6470;47.654;7.896;2024-03-08T07:31:21;4.30;99.90
12811;DHT22;6470;47.654;7.896;2024-03-08T07:36:34;4.50;99.90
12811;DHT22;6470;47.654;7.896;2024-03-08T07:41:31;4.80;99.90
12811;DHT22;6470;47.654;7.896;2024-03-08T07:43:56;3.90;99.90
12811;DHT22;6470;47.654;7.896;2024-03-08T07:48:48;2.10;99.90
12811;DHT22;6470;47.654;7.896;2024-03-08T07:51:16;4.50;99.90
12811;DHT22;6470;47.654;7.896;2024-03-08T07:53:43;5.50;99.90
12811;DHT22;6470;47.654;7.896;2024-03-08T07:56:09;5.60;99.90
12811;DHT22;6470;47.654;7.896;2024-03-08T07:58:38;5.80;99.90
12811;DHT22;6470;47.654;7.896;2024-03-08T08:01:06;2.60;99.90
12811;DHT22;6470;47.654;7.896;2024-03-08T08:03:32;2.10;99.90
12811;DHT22;6470;47.654;7.896;2024-03-08T08:05:57;2.00;99.90
12811;DHT22;6470;47.654;7.896;2024-03-08T08:08:23;5.00;99.90
12811;DHT22;6470;47.654;7.896;2024-03-08T08:10:51;1.70;99.90
12811;DHT22;6470;47.654;7.896;2024-03-08T08:13:17;5.40;99.90
12811;DHT22;6470;47.654;7.896;2024-03-08T08:15:43;5.10;99.90
12811;DHT22;6470;47.654;7.896;2024-03-08T08:18:09;5.20;99.90
12811;DHT22;6470;47.654;7.896;2024-03-08T08:20:35;5.70;99.90
12811;DHT22;6470;47.654;7.896;2024-03-08T08:23:01;6.10;99.90
12811;DHT22;6470;47.654;7.896;2024-03-08T08:25:26;3.30;99.90
12811;DHT22;6470;47.654;7.896;2024-03-08T08:27:52;6.30;99.90
12811;DHT22;6470;47.654;7.896;2024-03-08T08:30:19;6.40;99.90
12811;DHT22;6470;47.654;7.896;2024-03-08T08:32:45;6.70;99.90
12811;DHT22;6470;47.654;7.896;2024-03-08T08:35:12;6.20;99.90
12811;DHT22;6470;47.654;7.896;2024-03-08T08:37:41;6.00;99.90
12811;DHT22;6470;47.654;7.896;2024-03-08T08:40:08;7.10;99.90
12811;DHT22;6470;47.654;7.896;2024-03-08T08:42:40;7.20;99.90
12811;DHT22;6470;47.654;7.896;2024-03-08T08:45:06;7.30;99.90
12811;DHT22;6470;47.654;7.896;2024-03-08T08:47:36;7.70;99.90
12811;DHT22;6470;47.654;7.896;2024-03-08T08:50:02;6.80;99.90
12811;DHT22;6470;47.654;7.896;2024-03-08T08:52:32;4.40;99.90
12811;DHT22;6470;47.654;7.896;2024-03-08T08:54:58;7.40;99.90
12811;DHT22;6470;47.654;7.896;2024-03-08T08:57:24;8.20;99.90
12811;DHT22;6470;47.654;7.896;2024-03-08T08:59:49;8.50;99.90
12811;DHT22;6470;47.654;7.896;2024-03-08T09:02:15;9.00;99.90
12811;DHT22;6470;47.654;7.896;2024-03-08T09:04:42;8.80;99.90
12811;DHT22;6470;47.654;7.896;2024-03-08T09:07:09;8.90;99.90
12811;DHT22;6470;47.654;7.896;2024-03-08T09:09:34;8.20;99.90
12811;DHT22;6470;47.654;7.896;2024-03-08T09:14:27;8.70;99.90
12811;DHT22;6470;47.654;7.896;2024-03-08T09:19:19;8.60;99.90
12811;DHT22;6470;47.654;7.896;2024-03-08T09:21:45;8.90;99.90
12811;DHT22;6470;47.654;7.896;2024-03-08T09:24:11;8.60;99.90
12811;DHT22;6470;47.654;7.896;2024-03-08T09:29:06;8.70;99.90
12811;DHT22;6470;47.654;7.896;2024-03-08T09:31:32;9.80;99.90
12811;DHT22;6470;47.654;7.896;2024-03-08T09:33:58;9.70;99.90
12811;DHT22;6470;47.654;7.896;2024-03-08T09:36:24;9.70;99.90
12811;DHT22;6470;47.654;7.896;2024-03-08T09:41:16;9.30;99.90
12811;DHT22;6470;47.654;7.896;2024-03-08T09:43:43;10.10;99.90
12811;DHT22;6470;47.654;7.896;2024-03-08T09:46:10;10.40;99.90
12811;DHT22;6470;47.654;7.896;2024-03-08T09:48:36;9.80;99.90
12811;DHT22;6470;47.654;7.896;2024-03-08T09:51:03;9.60;99.90
12811;DHT22;6470;47.654;7.896;2024-03-08T09:53:30;10.10;99.90
12811;DHT22;6470;47.654;7.896;2024-03-08T09:55:56;11.80;99.90
12811;DHT22;6470;47.654;7.896;2024-03-08T09:58:22;11.40;99.90
12811;DHT22;6470;47.654;7.896;2024-03-08T10:01:03;10.10;99.90
12811;DHT22;6470;47.654;7.896;2024-03-08T10:03:30;9.40;99.90
12811;DHT22;6470;47.654;7.896;2024-03-08T10:05:57;9.10;99.90
12811;DHT22;6470;47.654;7.896;2024-03-08T10:08:27;9.20;99.90
12811;DHT22;6470;47.654;7.896;2024-03-08T10:10:55;8.90;99.90
12811;DHT22;6470;47.654;7.896;2024-03-08T10:13:25;8.80;99.90
12811;DHT22;6470;47.654;7.896;2024-03-08T10:15:52;9.20;99.90
12811;DHT22;6470;47.654;7.896;2024-03-08T10:18:18;9.20;99.90
12811;DHT22;6470;47.654;7.896;2024-03-08T10:20:44;9.10;99.90
12811;DHT22;6470;47.654;7.896;2024-03-08T10:23:09;8.80;99.90
12811;DHT22;6470;47.654;7.896;2024-03-08T10:25:36;9.90;99.90
12811;DHT22;6470;47.654;7.896;2024-03-08T10:28:05;9.60;99.90
12811;DHT22;6470;47.654;7.896;2024-03-08T10:30:31;12.10;99.90
12811;DHT22;6470;47.654;7.896;2024-03-08T10:37:51;10.20;99.90
12811;DHT22;6470;47.654;7.896;2024-03-08T10:40:28;9.30;99.90
12811;DHT22;6470;47.654;7.896;2024-03-08T10:47:58;12.20;99.90
12811;DHT22;6470;47.654;7.896;2024-03-08T10:50:30;11.10;99.90
12811;DHT22;6470;47.654;7.896;2024-03-08T10:53:00;14.90;99.90
12811;DHT22;6470;47.654;7.896;2024-03-08T10:55:28;11.70;99.90
12811;DHT22;6470;47.654;7.896;2024-03-08T10:57:54;11.80;99.90
12811;DHT22;6470;47.654;7.896;2024-03-08T11:00:20;9.60;99.90
12811;DHT22;6470;47.654;7.896;2024-03-08T11:02:53;11.60;99.90
12811;DHT22;6470;47.654;7.896;2024-03-08T11:05:51;11.90;99.90
12811;DHT22;6470;47.654;7.896;2024-03-08T11:08:20;11.70;99.90
12811;DHT22;6470;47.654;7.896;2024-03-08T11:10:50;12.30;99.90
12811;DHT22;6470;47.654;7.896;2024-03-08T11:13:39;10.50;99.90
12811;DHT22;6470;47.654;7.896;2024-03-08T11:19:04;11.80;99.90
12811;DHT22;6470;47.654;7.896;2024-03-08T11:21:31;12.00;99.90
12811;DHT22;6470;47.654;7.896;2024-03-08T11:24:05;11.50;99.90
12811;DHT22;6470;47.654;7.896;2024-03-08T11:26:31;12.30;99.90
12811;DHT22;6470;47.654;7.896;2024-03-08T11:32:08;10.70;99.90
12811;DHT22;6470;47.654;7.896;2024-03-08T11:34:42;12.20;99.90
12811;DHT22;6470;47.654;7.896;2024-03-08T11:37:13;11.90;99.90
12811;DHT22;6470;47.654;7.896;2024-03-08T11:39:46;12.40;99.90
12811;DHT22;6470;47.654;7.896;2024-03-08T11:42:12;11.90;99.90
12811;DHT22;6470;47.654;7.896;2024-03-08T11:47:14;12.40;99.90
12811;DHT22;6470;47.654;7.896;2024-03-08T11:49:40;15.00;99.90
12811;DHT22;6470;47.654;7.896;2024-03-08T11:52:16;12.00;99.90
12811;DHT22;6470;47.654;7.896;2024-03-08T11:54:52;14.50;99.90
12811;DHT22;6470;47.654;7.896;2024-03-08T11:57:23;11.90;99.90
12811;DHT22;6470;47.654;7.896;2024-03-08T11:59:53;12.20;99.90
12811;DHT22;6470;47.654;7.896;2024-03-08T12:02:19;12.40;99.90
12811;DHT22;6470;47.654;7.896;2024-03-08T12:04:45;12.10;99.90
12811;DHT22;6470;47.654;7.896;2024-03-08T12:07:12;11.90;99.90
12811;DHT22;6470;47.654;7.896;2024-03-08T12:09:40;11.60;99.90
12811;DHT22;6470;47.654;7.896;2024-03-08T12:12:07;14.70;99.90
12811;DHT22;6470;47.654;7.896;2024-03-08T12:14:35;12.00;99.90
12811;DHT22;6470;47.654;7.896;2024-03-08T12:17:02;10.20;99.90
12811;DHT22;6470;47.654;7.896;2024-03-08T12:19:28;12.50;99.90
12811;DHT22;6470;47.654;7.896;2024-03-08T12:21:55;14.80;99.90
12811;DHT22;6470;47.654;7.896;2024-03-08T12:26:47;9.30;99.90
12811;DHT22;6470;47.654;7.896;2024-03-08T12:29:24;14.60;99.90
12811;DHT22;6470;47.654;7.896;2024-03-08T12:31:58;15.20;99.90
12811;DHT22;6470;47.654;7.896;2024-03-08T12:34:26;14.80;99.90
12811;DHT22;6470;47.654;7.896;2024-03-08T12:36:54;15.60;99.90
12811;DHT22;6470;47.654;7.896;2024-03-08T12:39:21;14.90;99.90
12811;DHT22;6470;47.654;7.896;2024-03-08T12:41:48;15.50;99.90
12811;DHT22;6470;47.654;7.896;2024-03-08T12:44:17;15.00;99.90
12811;DHT22;6470;47.654;7.896;2024-03-08T12:46:44;15.10;99.90
12811;DHT22;6470;47.654;7.896;2024-03-08T12:49:10;15.30;99.90
12811;DHT22;6470;47.654;7.896;2024-03-08T12:51:38;15.60;99.90
12811;DHT22;6470;47.654;7.896;2024-03-08T12:59:06;14.70;99.90
12811;DHT22;6470;47.654;7.896;2024-03-08T13:01:33;15.10;99.90
12811;DHT22;6470;47.654;7.896;2024-03-08T13:03:59;15.40;99.90
12811;DHT22;6470;47.654;7.896;2024-03-08T13:06:27;10.20;99.90
12811;DHT22;6470;47.654;7.896;2024-03-08T13:08:54;15.00;99.90
12811;DHT22;6470;47.654;7.896;2024-03-08T13:11:21;15.30;99.90
12811;DHT22;6470;47.654;7.896;2024-03-08T13:13:48;14.60;99.90
12811;DHT22;6470;47.654;7.896;2024-03-08T13:16:15;15.00;99.90
12811;DHT22;6470;47.654;7.896;2024-03-08T13:18:43;15.40;99.90
12811;DHT22;6470;47.654;7.896;2024-03-08T13:21:12;15.50;99.90
12811;DHT22;6470;47.654;7.896;2024-03-08T13:23:41;12.80;99.90
12811;DHT22;6470;47.654;7.896;2024-03-08T13:26:12;15.60;99.90
12811;DHT22;6470;47.654;7.896;2024-03-08T13:28:50;15.60;99.90
12811;DHT22;6470;47.654;7.896;2024-03-08T13:31:19;13.00;99.90
12811;DHT22;6470;47.654;7.896;2024-03-08T13:33:45;14.90;99.90
12811;DHT22;6470;47.654;7.896;2024-03-08T13:36:12;15.60;99.90
12811;DHT22;6470;47.654;7.896;2024-03-08T13:38:45;15.50;99.90
12811;DHT22;6470;47.654;7.896;2024-03-08T13:41:12;12.70;99.90
12811;DHT22;6470;47.654;7.896;2024-03-08T13:43:44;15.50;99.90
12811;DHT22;6470;47.654;7.896;2024-03-08T13:46:10;15.10;99.90
12811;DHT22;6470;47.654;7.896;2024-03-08T13:48:36;15.80;99.90
12811;DHT22;6470;47.654;7.896;2024-03-08T13:51:07;9.70;99.90
12811;DHT22;6470;47.654;7.896;2024-03-08T13:56:02;15.70;99.90
12811;DHT22;6470;47.654;7.896;2024-03-08T13:58:28;15.10;99.90
12811;DHT22;6470;47.654;7.896;2024-03-08T14:00:54;15.10;99.90
12811;DHT22;6470;47.654;7.896;2024-03-08T14:03:21;9.60;99.90
12811;DHT22;6470;47.654;7.896;2024-03-08T14:05:46;15.30;99.90
12811;DHT22;6470;47.654;7.896;2024-03-08T14:08:12;15.40;99.90
12811;DHT22;6470;47.654;7.896;2024-03-08T14:10:39;15.10;99.90
12811;DHT22;6470;47.654;7.896;2024-03-08T14:13:05;11.70;99.90
12811;DHT22;6470;47.654;7.896;2024-03-08T14:17:58;14.90;99.90
12811;DHT22;6470;47.654;7.896;2024-03-08T14:22:52;9.30;99.90
12811;DHT22;6470;47.654;7.896;2024-03-08T14:25:18;12.00;99.90
12811;DHT22;6470;47.654;7.896;2024-03-08T14:27:45;11.90;99.90
12811;DHT22;6470;47.654;7.896;2024-03-08T14:30:12;10.40;99.90
12811;DHT22;6470;47.654;7.896;2024-03-08T14:32:38;12.50;99.90
12811;DHT22;6470;47.654;7.896;2024-03-08T14:35:05;11.00;99.90
12811;DHT22;6470;47.654;7.896;2024-03-08T14:37:31;15.60;99.90
12811;DHT22;6470;47.654;7.896;2024-03-08T14:39:57;9.80;99.90
12811;DHT22;6470;47.654;7.896;2024-03-08T14:42:22;15.10;99.90
12811;DHT22;6470;47.654;7.896;2024-03-08T14:44:48;15.30;99.90
12811;DHT22;6470;47.654;7.896;2024-03-08T14:47:17;15.30;99.90
12811;DHT22;6470;47.654;7.896;2024-03-08T14:49:42;15.00;99.90
12811;DHT22;6470;47.654;7.896;2024-03-08T14:52:08;15.10;99.90
12811;DHT22;6470;47.654;7.896;2024-03-08T14:54:53;15.30;99.90
12811;DHT22;6470;47.654;7.896;2024-03-08T14:57:19;15.20;99.90
12811;DHT22;6470;47.654;7.896;2024-03-08T15:02:10;14.60;99.90
12811;DHT22;6470;47.654;7.896;2024-03-08T15:04:36;15.50;99.90
12811;DHT22;6470;47.654;7.896;2024-03-08T15:07:02;14.90;99.90
12811;DHT22;6470;47.654;7.896;2024-03-08T15:09:31;15.30;99.90
12811;DHT22;6470;47.654;7.896;2024-03-08T15:12:06;15.00;99.90
12811;DHT22;6470;47.654;7.896;2024-03-08T15:16:58;9.90;99.90
12811;DHT22;6470;47.654;7.896;2024-03-08T15:19:24;15.30;99.90
12811;DHT22;6470;47.654;7.896;2024-03-08T15:21:50;10.40;99.90
12811;DHT22;6470;47.654;7.896;2024-03-08T15:24:20;15.40;99.90
12811;DHT22;6470;47.654;7.896;2024-03-08T15:26:47;15.50;99.90
12811;DHT22;6470;47.654;7.896;2024-03-08T15:29:16;15.50;99.90
12811;DHT22;6470;47.654;7.896;2024-03-08T15:31:48;15.10;99.90
12811;DHT22;6470;47.654;7.896;2024-03-08T15:34:17;15.20;99.90
12811;DHT22;6470;47.654;7.896;2024-03-08T15:36:46;15.00;99.90
12811;DHT22;6470;47.654;7.896;2024-03-08T15:39:15;11.90;99.90
12811;DHT22;6470;47.654;7.896;2024-03-08T15:41:41;9.80;99.90
12811;DHT22;6470;47.654;7.896;2024-03-08T15:44:09;9.80;99.90
12811;DHT22;6470;47.654;7.896;2024-03-08T15:46:38;12.00;99.90
12811;DHT22;6470;47.654;7.896;2024-03-08T15:49:05;12.00;99.90
12811;DHT22;6470;47.654;7.896;2024-03-08T15:51:32;15.10;99.90
12811;DHT22;6470;47.654;7.896;2024-03-08T15:53:58;11.30;99.90
12811;DHT22;6470;47.654;7.896;2024-03-08T15:56:24;12.50;99.90
12811;DHT22;6470;47.654;7.896;2024-03-08T16:06:11;12.50;99.90
12811;DHT22;6470;47.654;7.896;2024-03-08T16:08:37;9.70;99.90
12811;DHT22;6470;47.654;7.896;2024-03-08T16:13:36;12.50;99.90
12811;DHT22;6470;47.654;7.896;2024-03-08T16:16:04;10.50;99.90
12811;DHT22;6470;47.654;7.896;2024-03-08T16:21:00;10.40;99.90
12811;DHT22;6470;47.654;7.896;2024-03-08T16:30:49;9.20;99.90
12811;DHT22;6470;47.654;7.896;2024-03-08T16:33:15;9.30;99.90
12811;DHT22;6470;47.654;7.896;2024-03-08T16:35:41;10.20;99.90
12811;DHT22;6470;47.654;7.896;2024-03-08T16:38:12;9.30;99.90
12811;DHT22;6470;47.654;7.896;2024-03-08T16:40:39;9.60;99.90
12811;DHT22;6470;47.654;7.896;2024-03-08T16:43:05;9.70;99.90
12811;DHT22;6470;47.654;7.896;2024-03-08T16:45:30;9.80;99.90
12811;DHT22;6470;47.654;7.896;2024-03-08T16:47:56;9.40;99.90
12811;DHT22;6470;47.654;7.896;2024-03-08T16:50:22;9.80;99.90
12811;DHT22;6470;47.654;7.896;2024-03-08T16:52:52;9.10;99.90
12811;DHT22;6470;47.654;7.896;2024-03-08T16:57:46;9.00;99.90
12811;DHT22;6470;47.654;7.896;2024-03-08T17:00:21;9.10;99.90
12811;DHT22;6470;47.654;7.896;2024-03-08T17:05:24;8.30;99.90
12811;DHT22;6470;47.654;7.896;2024-03-08T17:07:55;8.10;99.90
12811;DHT22;6470;47.654;7.896;2024-03-08T17:10:23;8.40;99.90
12811;DHT22;6470;47.654;7.896;2024-03-08T17:12:51;8.00;99.90
12811;DHT22;6470;47.654;7.896;2024-03-08T17:15:27;7.70;99.90
12811;DHT22;6470;47.654;7.896;2024-03-08T17:17:55;8.70;99.90
12811;DHT22;6470;47.654;7.896;2024-03-08T17:20:22;9.10;99.90
12811;DHT22;6470;47.654;7.896;2024-03-08T17:22:53;9.30;99.90
12811;DHT22;6470;47.654;7.896;2024-03-08T17:25:20;8.70;99.90
12811;DHT22;6470;47.654;7.896;2024-03-08T17:27:48;8.40;99.90
12811;DHT22;6470;47.654;7.896;2024-03-08T17:30:22;8.30;99.90
12811;DHT22;6470;47.654;7.896;2024-03-08T17:32:53;6.70;99.90
12811;DHT22;6470;47.654;7.896;2024-03-08T17:35:23;7.60;99.90
12811;DHT22;6470;47.654;7.896;2024-03-08T17:37:51;8.10;99.90
12811;DHT22;6470;47.654;7.896;2024-03-08T17:40:20;7.90;99.90
12811;DHT22;6470;47.654;7.896;2024-03-08T17:42:49;6.40;99.90
12811;DHT22;6470;47.654;7.896;2024-03-08T17:47:43;7.90;99.90
12811;DHT22;6470;47.654;7.896;2024-03-08T17:50:11;5.10;99.90
12811;DHT22;6470;47.654;7.896;2024-03-08T17:52:40;7.90;99.90
12811;DHT22;6470;47.654;7.896;2024-03-08T17:55:08;8.10;99.90
12811;DHT22;6470;47.654;7.896;2024-03-08T17:57:37;8.10;99.90
12811;DHT22;6470;47.654;7.896;2024-03-08T18:00:09;7.10;99.90
12811;DHT22;6470;47.654;7.896;2024-03-08T18:02:48;8.00;99.90
12811;DHT22;6470;47.654;7.896;2024-03-08T18:05:19;7.70;99.90
12811;DHT22;6470;47.654;7.896;2024-03-08T18:07:47;8.00;99.90
12811;DHT22;6470;47.654;7.896;2024-03-08T18:10:13;7.60;99.90
12811;DHT22;6470;47.654;7.896;2024-03-08T18:12:50;7.70;99.90
12811;DHT22;6470;47.654;7.896;2024-03-08T18:15:19;4.20;99.90
12811;DHT22;6470;47.654;7.896;2024-03-08T18:17:48;4.00;99.90
12811;DHT22;6470;47.654;7.896;2024-03-08T18:20:16;7.40;99.90
12811;DHT22;6470;47.654;7.896;2024-03-08T18:22:46;8.00;99.90
12811;DHT22;6470;47.654;7.896;2024-03-08T18:27:43;7.70;99.90
12811;DHT22;6470;47.654;7.896;2024-03-08T18:30:10;6.90;99.90
12811;DHT22;6470;47.654;7.896;2024-03-08T18:32:44;7.30;99.90
12811;DHT22;6470;47.654;7.896;2024-03-08T18:35:11;3.80;99.90
12811;DHT22;6470;47.654;7.896;2024-03-08T18:37:39;6.80;99.90
12811;DHT22;6470;47.654;7.896;2024-03-08T18:40:09;7.50;99.90